createdAt,value
2023-05-06T00:00:33.390Z,236.91
2023-05-06T00:01:33.449Z,239.08
2023-05-06T00:02:33.558Z,237.81
2023-05-06T00:03:33.680Z,239.18
2023-05-06T00:04:33.637Z,237.71
2023-05-06T00:05:33.595Z,236.58
2023-05-06T00:06:33.615Z,236.79
2023-05-06T00:07:33.687Z,238.36
2023-05-06T00:08:33.708Z,236.17
2023-05-06T00:09:33.729Z,238.85
2023-05-06T00:10:33.795Z,239.34
2023-05-06T00:11:33.812Z,236.52
2023-05-06T00:12:33.905Z,236.46
2023-05-06T00:13:33.874Z,237.61
2023-05-06T00:14:33.920Z,236.98
2023-05-06T00:15:33.999Z,236.18
2023-05-06T00:16:34.069Z,236.37
2023-05-06T00:17:34.107Z,235.01
2023-05-06T00:18:34.086Z,238.01
2023-05-06T00:19:34.205Z,236.35
2023-05-06T00:20:34.185Z,237.12
2023-05-06T00:21:34.197Z,237.79
2023-05-06T00:22:34.738Z,239.13
2023-05-06T00:23:34.290Z,235.15
2023-05-06T00:24:34.370Z,236.92
2023-05-06T00:25:34.371Z,233.97
2023-05-06T00:26:34.448Z,236.56
2023-05-06T00:27:34.527Z,235.67
2023-05-06T00:28:34.490Z,234.91
2023-05-06T00:29:34.541Z,234.76
2023-05-06T00:30:34.597Z,236.24
2023-05-06T00:31:34.725Z,238.34
2023-05-06T00:32:34.668Z,237.82
2023-05-06T00:33:34.699Z,238.03
2023-05-06T00:34:34.741Z,235.00
2023-05-06T00:35:34.767Z,236.82
2023-05-06T00:36:34.793Z,236.29
2023-05-06T00:37:34.860Z,235.68
2023-05-06T00:38:34.881Z,234.77
2023-05-06T00:39:34.965Z,238.05
2023-05-06T00:40:34.976Z,237.21
2023-05-06T00:41:35.039Z,235.95
2023-05-06T00:42:35.052Z,232.82
2023-05-06T00:43:35.159Z,236.32
2023-05-06T00:44:35.144Z,238.17
2023-05-06T00:45:35.188Z,234.01
2023-05-06T00:46:35.213Z,233.77
2023-05-06T00:47:35.497Z,236.02
2023-05-06T00:48:35.326Z,238.93
2023-05-06T00:49:35.334Z,235.41
2023-05-06T00:50:35.369Z,234.73
2023-05-06T00:51:35.429Z,236.72
2023-05-06T00:52:35.476Z,233.67
2023-05-06T00:53:35.518Z,234.71
2023-05-06T00:54:35.578Z,237.14
2023-05-06T00:55:35.620Z,234.47
2023-05-06T00:56:35.658Z,234.23
2023-05-06T00:57:35.684Z,236.98
2023-05-06T00:58:35.753Z,236.30
2023-05-06T00:59:35.784Z,236.87
2023-05-06T01:00:35.802Z,236.57
2023-05-06T01:01:35.867Z,235.45
2023-05-06T01:02:46.491Z,237.21
2023-05-06T01:03:37.109Z,237.38
2023-05-06T01:04:35.924Z,236.88
2023-05-06T01:05:35.895Z,235.75
2023-05-06T01:06:35.893Z,238.12
2023-05-06T01:07:35.875Z,236.12
2023-05-06T01:08:35.890Z,235.35
2023-05-06T01:09:35.906Z,236.23
2023-05-06T01:10:35.875Z,235.93
2023-05-06T01:11:35.853Z,237.73
2023-05-06T01:12:35.865Z,235.25
2023-05-06T01:13:35.842Z,235.45
2023-05-06T01:14:35.813Z,235.23
2023-05-06T01:15:35.833Z,235.42
2023-05-06T01:16:35.939Z,236.83
2023-05-06T01:17:35.923Z,234.33
2023-05-06T01:18:35.956Z,234.01
2023-05-06T01:19:36.010Z,232.95
2023-05-06T01:20:36.056Z,235.33
2023-05-06T01:21:36.106Z,232.73
2023-05-06T01:22:36.171Z,234.23
2023-05-06T01:23:36.204Z,236.21
2023-05-06T01:24:36.314Z,234.99
2023-05-06T01:25:36.290Z,233.53
2023-05-06T01:26:36.357Z,237.51
2023-05-06T01:27:36.382Z,234.01
2023-05-06T01:28:36.468Z,233.99
2023-05-06T01:29:36.487Z,236.50
2023-05-06T01:30:36.530Z,232.68
2023-05-06T01:31:36.595Z,237.34
2023-05-06T01:32:36.682Z,235.22
2023-05-06T01:33:36.673Z,234.95
2023-05-06T01:34:36.701Z,235.47
2023-05-06T01:35:36.816Z,234.42
2023-05-06T01:36:36.803Z,234.53
2023-05-06T01:37:36.852Z,235.20
2023-05-06T01:38:36.911Z,235.78
2023-05-06T01:39:36.976Z,234.66
2023-05-06T01:40:37.040Z,233.62
2023-05-06T01:41:37.084Z,234.06
2023-05-06T01:42:37.114Z,235.21
2023-05-06T01:43:37.184Z,233.36
2023-05-06T01:44:37.197Z,236.56
2023-05-06T01:45:37.228Z,233.38
2023-05-06T01:46:37.402Z,238.89
2023-05-06T01:47:37.367Z,233.68
2023-05-06T01:48:37.384Z,234.62
2023-05-06T01:49:37.499Z,233.93
2023-05-06T01:50:37.467Z,236.49
2023-05-06T01:51:37.588Z,236.21
2023-05-06T01:52:37.576Z,237.38
2023-05-06T01:53:37.613Z,235.74
2023-05-06T01:54:37.781Z,235.52
2023-05-06T01:55:37.743Z,236.66
2023-05-06T01:56:37.788Z,234.76
2023-05-06T01:57:37.851Z,233.34
2023-05-06T01:58:37.891Z,236.25
2023-05-06T01:59:37.938Z,236.76
2023-05-06T02:00:38.001Z,234.14
2023-05-06T02:01:38.089Z,234.83
2023-05-06T02:02:38.198Z,237.38
2023-05-06T02:03:38.254Z,235.18
2023-05-06T02:04:38.192Z,235.70
2023-05-06T02:05:38.235Z,234.88
2023-05-06T02:06:38.300Z,235.19
2023-05-06T02:07:38.430Z,233.41
2023-05-06T02:08:38.402Z,235.62
2023-05-06T02:09:38.457Z,235.41
2023-05-06T02:10:38.533Z,233.06
2023-05-06T02:11:38.568Z,234.63
2023-05-06T02:12:38.634Z,235.24
2023-05-06T02:13:38.676Z,233.55
2023-05-06T02:14:38.708Z,231.62
2023-05-06T02:15:38.751Z,233.84
2023-05-06T02:16:38.909Z,235.75
2023-05-06T02:17:38.874Z,233.68
2023-05-06T02:18:38.901Z,234.16
2023-05-06T02:19:38.980Z,235.16
2023-05-06T02:20:39.014Z,235.94
2023-05-06T02:21:39.065Z,234.33
2023-05-06T02:22:39.084Z,232.20
2023-05-06T02:23:39.203Z,236.59
2023-05-06T02:24:39.210Z,234.41
2023-05-06T02:25:39.253Z,234.54
2023-05-06T02:26:39.306Z,235.25
2023-05-06T02:27:39.340Z,233.57
2023-05-06T02:28:39.410Z,235.58
2023-05-06T02:29:39.484Z,232.82
2023-05-06T02:30:39.511Z,235.32
2023-05-06T02:31:39.615Z,233.29
2023-05-06T02:32:39.662Z,230.40
2023-05-06T02:33:39.696Z,236.36
2023-05-06T02:34:39.723Z,232.22
2023-05-06T02:35:39.775Z,236.49
2023-05-06T02:36:39.803Z,233.04
2023-05-06T02:37:39.873Z,235.52
2023-05-06T02:38:39.929Z,234.96
2023-05-06T02:39:40.025Z,230.18
2023-05-06T02:40:40.026Z,231.94
2023-05-06T02:41:40.079Z,235.46
2023-05-06T02:42:40.188Z,236.37
2023-05-06T02:43:40.200Z,230.18
2023-05-06T02:44:40.232Z,233.33
2023-05-06T02:45:40.341Z,233.14
2023-05-06T02:46:40.338Z,232.57
2023-05-06T02:47:40.462Z,235.00
2023-05-06T02:48:40.459Z,233.38
2023-05-06T02:49:40.505Z,233.70
2023-05-06T02:50:40.560Z,233.40
2023-05-06T02:51:40.608Z,232.35
2023-05-06T02:52:40.652Z,234.68
2023-05-06T02:53:40.718Z,232.70
2023-05-06T02:54:40.789Z,234.46
2023-05-06T02:55:40.882Z,230.81
2023-05-06T02:56:40.893Z,231.87
2023-05-06T02:57:40.942Z,230.85
2023-05-06T02:58:41.000Z,231.97
2023-05-06T02:59:41.024Z,232.25
2023-05-06T03:00:41.095Z,231.46
2023-05-06T03:01:41.172Z,234.18
2023-05-06T03:02:41.257Z,234.32
2023-05-06T03:03:41.287Z,236.33
2023-05-06T03:04:41.323Z,232.72
2023-05-06T03:05:41.351Z,230.85
2023-05-06T03:06:41.406Z,235.98
2023-05-06T03:07:41.467Z,233.50
2023-05-06T03:08:41.510Z,229.34
2023-05-06T03:09:41.591Z,232.38
2023-05-06T03:10:41.847Z,234.12
2023-05-06T03:11:41.676Z,231.62
2023-05-06T03:12:41.780Z,233.95
2023-05-06T03:13:41.814Z,234.11
2023-05-06T03:14:41.868Z,234.58
2023-05-06T03:15:41.906Z,233.54
2023-05-06T03:16:42.035Z,233.30
2023-05-06T03:17:42.057Z,232.85
2023-05-06T03:18:42.098Z,230.67
2023-05-06T03:19:42.134Z,230.35
2023-05-06T03:20:42.198Z,230.55
2023-05-06T03:21:42.321Z,232.24
2023-05-06T03:22:42.435Z,233.12
2023-05-06T03:23:42.374Z,231.42
2023-05-06T03:24:42.427Z,234.71
2023-05-06T03:25:42.480Z,230.14
2023-05-06T03:26:42.550Z,233.65
2023-05-06T03:27:42.836Z,231.43
2023-05-06T03:28:42.643Z,231.86
2023-05-06T03:29:42.726Z,231.82
2023-05-06T03:30:42.787Z,232.54
2023-05-06T03:31:42.825Z,229.86
2023-05-06T03:32:42.895Z,231.26
2023-05-06T03:33:42.959Z,230.36
2023-05-06T03:34:42.972Z,230.16
2023-05-06T03:35:43.120Z,231.18
2023-05-06T03:36:43.110Z,231.39
2023-05-06T03:37:43.168Z,231.90
2023-05-06T03:38:43.195Z,230.06
2023-05-06T03:39:43.310Z,229.67
2023-05-06T03:40:43.341Z,231.92
2023-05-06T03:41:43.416Z,230.21
2023-05-06T03:42:43.440Z,229.80
2023-05-06T03:43:43.489Z,230.04
2023-05-06T03:44:43.555Z,230.73
2023-05-06T03:45:43.633Z,230.64
2023-05-06T03:46:43.704Z,232.45
2023-05-06T03:47:43.741Z,233.23
2023-05-06T03:48:43.791Z,230.76
2023-05-06T03:49:43.826Z,232.84
2023-05-06T03:50:43.891Z,229.43
2023-05-06T03:51:43.943Z,230.63
2023-05-06T03:52:43.994Z,231.88
2023-05-06T03:53:44.080Z,232.04
2023-05-06T03:54:44.114Z,232.15
2023-05-06T03:55:44.180Z,231.78
2023-05-06T03:56:44.259Z,231.19
2023-05-06T03:57:44.310Z,234.11
2023-05-06T03:58:44.414Z,230.12
2023-05-06T03:59:44.397Z,227.69
2023-05-06T04:00:44.462Z,229.49
2023-05-06T04:01:44.552Z,233.81
2023-05-06T04:02:44.594Z,228.47
2023-05-06T04:03:44.769Z,229.39
2023-05-06T04:04:44.707Z,230.88
2023-05-06T04:05:44.776Z,229.80
2023-05-06T04:06:44.838Z,230.14
2023-05-06T04:07:44.880Z,229.54
2023-05-06T04:08:44.939Z,231.32
2023-05-06T04:09:44.982Z,230.24
2023-05-06T04:10:45.069Z,233.53
2023-05-06T04:11:45.130Z,231.84
2023-05-06T04:12:45.185Z,231.66
2023-05-06T04:13:45.218Z,227.99
2023-05-06T04:14:45.286Z,231.47
2023-05-06T04:15:45.481Z,230.85
2023-05-06T04:16:45.458Z,231.06
2023-05-06T04:17:45.497Z,231.22
2023-05-06T04:18:45.562Z,230.33
2023-05-06T04:19:45.591Z,228.64
2023-05-06T04:20:45.637Z,235.12
2023-05-06T04:21:45.696Z,232.33
2023-05-06T04:22:45.744Z,231.65
2023-05-06T04:23:45.868Z,231.16
2023-05-06T04:24:45.897Z,232.53
2023-05-06T04:25:45.960Z,232.06
2023-05-06T04:26:46.011Z,232.60
2023-05-06T04:27:46.099Z,231.28
2023-05-06T04:28:46.129Z,231.23
2023-05-06T04:29:46.193Z,231.01
2023-05-06T04:30:46.245Z,232.27
2023-05-06T04:31:46.466Z,232.05
2023-05-06T04:32:46.387Z,230.22
2023-05-06T04:33:46.468Z,229.99
2023-05-06T04:34:46.503Z,227.82
2023-05-06T04:35:46.605Z,231.39
2023-05-06T04:36:46.639Z,230.19
2023-05-06T04:37:46.683Z,228.15
2023-05-06T04:38:46.767Z,227.41
2023-05-06T04:39:46.794Z,228.33
2023-05-06T04:40:46.855Z,232.40
2023-05-06T04:41:46.934Z,232.04
2023-05-06T04:42:46.984Z,227.61
2023-05-06T04:43:47.050Z,230.91
2023-05-06T04:44:47.098Z,230.67
2023-05-06T04:45:47.248Z,229.78
2023-05-06T04:46:47.230Z,229.16
2023-05-06T04:47:47.345Z,226.93
2023-05-06T04:48:47.365Z,230.81
2023-05-06T04:49:47.391Z,229.03
2023-05-06T04:50:47.466Z,227.75
2023-05-06T04:51:47.524Z,229.61
2023-05-06T04:52:47.615Z,233.97
2023-05-06T04:53:47.657Z,231.69
2023-05-06T04:54:47.695Z,228.30
2023-05-06T04:55:47.752Z,230.36
2023-05-06T04:56:47.809Z,233.31
2023-05-06T04:57:47.876Z,232.53
2023-05-06T04:58:47.928Z,231.94
2023-05-06T04:59:48.009Z,229.60
2023-05-06T05:00:48.054Z,229.09
2023-05-06T05:01:48.231Z,228.02
2023-05-06T05:02:48.354Z,230.18
2023-05-06T05:03:48.318Z,230.06
2023-05-06T05:04:48.317Z,231.19
2023-05-06T05:05:48.358Z,229.62
2023-05-06T05:06:48.440Z,230.05
2023-05-06T05:07:48.489Z,228.41
2023-05-06T05:08:48.544Z,232.80
2023-05-06T05:09:48.600Z,230.44
2023-05-06T05:10:48.689Z,229.19
2023-05-06T05:11:48.748Z,229.55
2023-05-06T05:12:48.820Z,231.63
2023-05-06T05:13:48.852Z,231.17
2023-05-06T05:14:48.918Z,230.14
2023-05-06T05:15:48.960Z,227.91
2023-05-06T05:16:49.047Z,228.24
2023-05-06T05:17:49.112Z,229.05
2023-05-06T05:18:49.175Z,227.96
2023-05-06T05:19:49.243Z,231.75
2023-05-06T05:20:49.288Z,225.78
2023-05-06T05:21:49.307Z,227.17
2023-05-06T05:22:49.366Z,229.19
2023-05-06T05:23:49.459Z,230.62
2023-05-06T05:24:49.481Z,229.88
2023-05-06T05:25:49.534Z,227.88
2023-05-06T05:26:49.581Z,229.14
2023-05-06T05:27:49.641Z,229.07
2023-05-06T05:28:49.708Z,227.47
2023-05-06T05:29:49.798Z,228.83
2023-05-06T05:30:49.848Z,229.54
2023-05-06T05:31:49.923Z,230.68
2023-05-06T05:32:50.004Z,229.60
2023-05-06T05:33:50.163Z,229.32
2023-05-06T05:34:50.039Z,229.04
2023-05-06T05:35:50.144Z,229.01
2023-05-06T05:36:50.091Z,224.78
2023-05-06T05:37:50.118Z,229.64
2023-05-06T05:38:50.166Z,230.20
2023-05-06T05:39:50.197Z,227.84
2023-05-06T05:40:50.281Z,227.52
2023-05-06T05:41:50.314Z,227.05
2023-05-06T05:42:50.411Z,230.99
2023-05-06T05:43:50.472Z,227.66
2023-05-06T05:44:50.513Z,229.23
2023-05-06T05:45:50.562Z,229.08
2023-05-06T05:46:50.661Z,228.57
2023-05-06T05:47:50.752Z,227.44
2023-05-06T05:48:50.758Z,226.15
2023-05-06T05:49:50.821Z,228.76
2023-05-06T05:50:50.862Z,228.11
2023-05-06T05:51:51.029Z,229.94
2023-05-06T05:52:50.979Z,225.40
2023-05-06T05:53:51.049Z,228.54
2023-05-06T05:54:51.093Z,228.18
2023-05-06T05:55:51.163Z,228.39
2023-05-06T05:56:51.214Z,228.67
2023-05-06T05:57:51.255Z,226.02
2023-05-06T05:58:51.322Z,225.80
2023-05-06T05:59:51.369Z,227.82
2023-05-06T06:00:51.403Z,224.51
2023-05-06T06:01:51.476Z,227.55
2023-05-06T06:02:51.644Z,229.47
2023-05-06T06:03:51.820Z,227.19
2023-05-06T06:04:51.745Z,226.63
2023-05-06T06:05:51.920Z,226.58
2023-05-06T06:06:51.722Z,226.55
2023-05-06T06:07:51.834Z,228.10
2023-05-06T06:08:51.810Z,229.03
2023-05-06T06:09:51.850Z,228.55
2023-05-06T06:10:51.872Z,227.46
2023-05-06T06:11:51.931Z,230.67
2023-05-06T06:12:52.190Z,225.13
2023-05-06T06:13:52.012Z,228.98
2023-05-06T06:14:52.074Z,230.73
2023-05-06T06:15:52.167Z,229.02
2023-05-06T06:16:52.161Z,224.68
2023-05-06T06:17:52.215Z,226.45
2023-05-06T06:18:52.303Z,227.10
2023-05-06T06:19:52.281Z,226.45
2023-05-06T06:20:53.483Z,225.76
2023-05-06T06:21:52.475Z,225.95
2023-05-06T06:22:52.426Z,227.20
2023-05-06T06:23:52.479Z,231.30
2023-05-06T06:24:52.526Z,227.82
2023-05-06T06:25:52.632Z,228.68
2023-05-06T06:26:52.655Z,224.57
2023-05-06T06:27:52.678Z,227.45
2023-05-06T06:28:52.755Z,225.86
2023-05-06T06:29:52.780Z,231.23
2023-05-06T06:30:52.834Z,226.71
2023-05-06T06:31:52.950Z,227.05
2023-05-06T06:32:53.054Z,226.57
2023-05-06T06:33:53.049Z,231.19
2023-05-06T06:34:53.052Z,226.96
2023-05-06T06:35:53.151Z,227.10
2023-05-06T06:36:53.149Z,227.40
2023-05-06T06:37:53.225Z,230.18
2023-05-06T06:38:53.260Z,228.86
2023-05-06T06:39:53.420Z,226.31
2023-05-06T06:40:53.366Z,226.24
2023-05-06T06:41:53.442Z,227.96
2023-05-06T06:42:53.464Z,227.28
2023-05-06T06:43:53.537Z,226.64
2023-05-06T06:44:53.561Z,225.42
2023-05-06T06:45:53.644Z,229.36
2023-05-06T06:46:53.700Z,230.41
2023-05-06T06:47:53.729Z,225.44
2023-05-06T06:48:53.769Z,227.94
2023-05-06T06:49:53.807Z,223.56
2023-05-06T06:50:53.869Z,225.70
2023-05-06T06:51:53.907Z,227.25
2023-05-06T06:52:53.958Z,225.44
2023-05-06T06:53:54.061Z,227.85
2023-05-06T06:54:54.082Z,228.36
2023-05-06T06:55:54.107Z,224.01
2023-05-06T06:56:54.165Z,226.97
2023-05-06T06:57:54.188Z,225.45
2023-05-06T06:58:54.233Z,228.02
2023-05-06T06:59:54.295Z,225.48
2023-05-06T07:00:54.392Z,226.62
2023-05-06T07:01:54.366Z,226.21
2023-05-06T07:02:54.466Z,228.47
2023-05-06T07:03:54.450Z,226.36
2023-05-06T07:04:54.455Z,225.04
2023-05-06T07:05:54.507Z,224.79
2023-05-06T07:06:54.534Z,226.00
2023-05-06T07:07:54.637Z,225.82
2023-05-06T07:08:54.607Z,224.87
2023-05-06T07:09:54.625Z,224.44
2023-05-06T07:10:54.678Z,225.14
2023-05-06T07:11:54.698Z,225.73
2023-05-06T07:12:54.775Z,225.72
2023-05-06T07:13:54.756Z,224.78
2023-05-06T07:14:54.790Z,224.40
2023-05-06T07:15:54.809Z,224.69
2023-05-06T07:16:54.857Z,223.94
2023-05-06T07:17:54.934Z,223.03
2023-05-06T07:18:54.905Z,223.37
2023-05-06T07:19:54.928Z,224.75
2023-05-06T07:20:54.942Z,220.35
2023-05-06T07:21:54.968Z,223.58
2023-05-06T07:22:55.014Z,223.73
2023-05-06T07:23:55.018Z,224.37
2023-05-06T07:24:55.018Z,224.64
2023-05-06T07:25:55.110Z,225.09
2023-05-06T07:26:55.056Z,224.36
2023-05-06T07:27:55.090Z,223.94
2023-05-06T07:28:55.103Z,222.71
2023-05-06T07:29:55.146Z,221.86
2023-05-06T07:30:55.162Z,222.06
2023-05-06T07:31:55.129Z,219.39
2023-05-06T07:32:55.239Z,214.38
2023-05-06T07:33:55.183Z,223.39
2023-05-06T07:34:55.157Z,224.60
2023-05-06T07:35:55.155Z,224.19
2023-05-06T07:36:55.194Z,221.23
2023-05-06T07:37:55.162Z,224.02
2023-05-06T07:38:55.167Z,217.82
2023-05-06T07:39:55.142Z,220.87
2023-05-06T07:40:55.163Z,217.89
2023-05-06T07:41:55.199Z,211.92
2023-05-06T07:42:55.181Z,211.93
2023-05-06T07:43:55.359Z,218.05
2023-05-06T07:44:55.213Z,219.46
2023-05-06T07:45:55.274Z,210.01
2023-05-06T07:46:55.457Z,213.14
2023-05-06T07:47:55.387Z,219.76
2023-05-06T07:48:55.375Z,214.40
2023-05-06T07:49:55.420Z,211.51
2023-05-06T07:50:55.493Z,218.54
2023-05-06T07:51:55.577Z,222.27
2023-05-06T07:52:55.612Z,212.45
2023-05-06T07:53:55.684Z,221.04
2023-05-06T07:54:55.757Z,213.03
2023-05-06T07:55:55.799Z,217.31
2023-05-06T07:56:55.859Z,221.14
2023-05-06T07:57:55.891Z,221.23
2023-05-06T07:58:55.957Z,217.73
2023-05-06T07:59:56.115Z,225.86
2023-05-06T08:00:56.053Z,222.18
2023-05-06T08:01:56.074Z,222.61
2023-05-06T08:02:56.221Z,213.36
2023-05-06T08:03:56.277Z,221.31
2023-05-06T08:04:56.214Z,211.59
2023-05-06T08:05:56.212Z,214.69
2023-05-06T08:06:56.216Z,225.71
2023-05-06T08:07:56.237Z,217.86
2023-05-06T08:08:56.242Z,227.37
2023-05-06T08:09:56.266Z,219.28
2023-05-06T08:10:56.301Z,225.74
2023-05-06T08:11:56.346Z,213.66
2023-05-06T08:12:56.412Z,225.23
2023-05-06T08:13:56.398Z,212.67
2023-05-06T08:14:56.420Z,220.74
2023-05-06T08:15:56.553Z,221.25
2023-05-06T08:16:56.479Z,217.78
2023-05-06T08:17:57.595Z,222.38
2023-05-06T08:18:56.494Z,226.51
2023-05-06T08:19:56.466Z,220.44
2023-05-06T08:20:56.479Z,222.11
2023-05-06T08:21:56.466Z,229.88
2023-05-06T08:22:56.460Z,230.00
2023-05-06T08:23:56.465Z,231.86
2023-05-06T08:24:56.435Z,225.01
2023-05-06T08:25:56.445Z,227.92
2023-05-06T08:26:56.451Z,227.18
2023-05-06T08:27:56.457Z,227.10
2023-05-06T08:28:56.447Z,228.07
2023-05-06T08:29:56.413Z,230.28
2023-05-06T08:30:56.406Z,226.70
2023-05-06T08:31:56.487Z,234.71
2023-05-06T08:32:56.516Z,227.73
2023-05-06T08:33:56.384Z,224.33
2023-05-06T08:34:56.389Z,229.32
2023-05-06T08:35:56.366Z,225.76
2023-05-06T08:36:56.351Z,227.11
2023-05-06T08:37:56.365Z,232.50
2023-05-06T08:38:56.367Z,231.85
2023-05-06T08:39:57.548Z,233.61
2023-05-06T08:40:56.324Z,237.52
2023-05-06T08:41:56.346Z,229.27
2023-05-06T08:42:56.330Z,230.86
2023-05-06T08:43:56.342Z,234.14
2023-05-06T08:44:56.309Z,229.40
2023-05-06T08:45:56.343Z,231.35
2023-05-06T08:46:56.302Z,227.42
2023-05-06T08:47:56.445Z,233.63
2023-05-06T08:48:56.282Z,227.15
2023-05-06T08:49:56.278Z,226.09
2023-05-06T08:50:56.290Z,228.95
2023-05-06T08:51:56.276Z,226.12
2023-05-06T08:52:56.244Z,226.89
2023-05-06T08:53:56.253Z,230.55
2023-05-06T08:54:56.264Z,230.03
2023-05-06T08:55:56.221Z,234.73
2023-05-06T08:56:56.266Z,221.12
2023-05-06T08:57:56.218Z,227.10
2023-05-06T08:58:56.225Z,227.18
2023-05-06T08:59:56.189Z,223.20
2023-05-06T09:00:56.232Z,230.17
2023-05-06T09:01:56.219Z,234.37
2023-05-06T09:02:56.272Z,223.69
2023-05-06T09:03:56.536Z,225.91
2023-05-06T09:04:56.194Z,226.39
2023-05-06T09:05:56.207Z,227.58
2023-05-06T09:06:56.192Z,231.57
2023-05-06T09:07:56.195Z,234.94
2023-05-06T09:08:56.212Z,229.13
2023-05-06T09:09:56.223Z,235.13
2023-05-06T09:10:56.202Z,234.42
2023-05-06T09:11:56.215Z,234.36
2023-05-06T09:12:56.177Z,238.78
2023-05-06T09:13:56.172Z,235.85
2023-05-06T09:14:56.173Z,234.38
2023-05-06T09:15:56.184Z,235.87
2023-05-06T09:16:56.253Z,239.26
2023-05-06T09:17:56.222Z,238.11
2023-05-06T09:18:56.185Z,228.19
2023-05-06T09:19:56.295Z,236.00
2023-05-06T09:20:56.207Z,227.92
2023-05-06T09:21:56.192Z,231.16
2023-05-06T09:22:56.224Z,238.29
2023-05-06T09:23:56.220Z,237.82
2023-05-06T09:24:56.220Z,237.62
2023-05-06T09:25:56.262Z,236.39
2023-05-06T09:26:56.240Z,234.52
2023-05-06T09:27:56.269Z,237.48
2023-05-06T09:28:56.248Z,241.63
2023-05-06T09:29:56.238Z,241.65
2023-05-06T09:30:56.282Z,237.00
2023-05-06T09:31:56.240Z,240.38
2023-05-06T09:32:56.265Z,240.13
2023-05-06T09:33:56.300Z,239.83
2023-05-06T09:34:56.258Z,235.96
2023-05-06T09:35:56.338Z,239.78
2023-05-06T09:36:56.263Z,241.32
2023-05-06T09:37:56.288Z,235.75
2023-05-06T09:38:56.354Z,235.31
2023-05-06T09:39:56.289Z,240.45
2023-05-06T09:40:56.292Z,240.06
2023-05-06T09:41:56.318Z,237.99
2023-05-06T09:42:56.330Z,238.83
2023-05-06T09:43:56.390Z,238.51
2023-05-06T09:44:56.345Z,238.41
2023-05-06T09:45:56.377Z,232.45
2023-05-06T09:46:56.328Z,240.00
2023-05-06T09:47:56.402Z,234.61
2023-05-06T09:48:56.356Z,238.62
2023-05-06T09:49:56.371Z,241.43
2023-05-06T09:50:56.354Z,239.98
2023-05-06T09:51:56.443Z,236.92
2023-05-06T09:52:56.459Z,237.02
2023-05-06T09:53:56.370Z,238.63
2023-05-06T09:54:56.380Z,237.24
2023-05-06T09:55:56.455Z,239.52
2023-05-06T09:56:56.372Z,239.20
2023-05-06T09:57:56.379Z,236.42
2023-05-06T09:58:56.385Z,235.36
2023-05-06T09:59:56.377Z,239.18
2023-05-06T10:00:56.387Z,230.58
2023-05-06T10:01:56.460Z,238.06
2023-05-06T10:02:56.511Z,238.02
2023-05-06T10:03:56.466Z,236.16
2023-05-06T10:04:56.621Z,230.45
2023-05-06T10:05:56.461Z,236.86
2023-05-06T10:06:56.445Z,234.17
2023-05-06T10:07:56.465Z,232.04
2023-05-06T10:08:56.414Z,238.50
2023-05-06T10:09:56.405Z,233.71
2023-05-06T10:10:56.413Z,237.46
2023-05-06T10:11:56.417Z,233.91
2023-05-06T10:12:56.541Z,232.45
2023-05-06T10:13:56.424Z,234.07
2023-05-06T10:14:56.406Z,227.68
2023-05-06T10:15:56.426Z,227.09
2023-05-06T10:16:56.418Z,236.26
2023-05-06T10:17:56.466Z,229.21
2023-05-06T10:18:56.431Z,233.31
2023-05-06T10:19:56.425Z,229.88
2023-05-06T10:20:56.436Z,227.37
2023-05-06T10:21:56.428Z,234.79
2023-05-06T10:22:56.429Z,233.18
2023-05-06T10:23:56.458Z,231.46
2023-05-06T10:24:56.394Z,227.92
2023-05-06T10:25:56.406Z,227.96
2023-05-06T10:26:56.427Z,236.99
2023-05-06T10:27:56.408Z,235.87
2023-05-06T10:28:56.536Z,237.14
2023-05-06T10:29:56.411Z,230.37
2023-05-06T10:30:56.455Z,233.27
2023-05-06T10:31:56.452Z,233.33
2023-05-06T10:32:56.443Z,230.17
2023-05-06T10:33:56.400Z,230.90
2023-05-06T10:34:56.411Z,238.37
2023-05-06T10:35:56.381Z,236.44
2023-05-06T10:36:56.373Z,232.66
2023-05-06T10:37:56.414Z,233.21
2023-05-06T10:38:56.396Z,233.57
2023-05-06T10:39:56.474Z,233.97
2023-05-06T10:40:56.374Z,238.92
2023-05-06T10:41:56.353Z,232.63
2023-05-06T10:42:56.384Z,234.15
2023-05-06T10:43:56.412Z,233.96
2023-05-06T10:44:56.365Z,229.95
2023-05-06T10:45:56.394Z,230.90
2023-05-06T10:46:56.364Z,229.92
2023-05-06T10:47:56.391Z,228.22
2023-05-06T10:48:56.391Z,226.08
2023-05-06T10:49:56.361Z,221.32
2023-05-06T10:50:56.378Z,230.24
2023-05-06T10:51:56.351Z,228.02
2023-05-06T10:52:56.393Z,231.29
2023-05-06T10:53:56.399Z,228.44
2023-05-06T10:54:56.357Z,228.27
2023-05-06T10:55:56.368Z,224.87
2023-05-06T10:56:56.337Z,231.67
2023-05-06T10:57:56.352Z,223.72
2023-05-06T10:58:56.353Z,225.85
2023-05-06T10:59:56.317Z,225.69
2023-05-06T11:00:56.368Z,219.38
2023-05-06T11:01:56.325Z,221.60
2023-05-06T11:02:56.429Z,216.36
2023-05-06T11:03:56.314Z,218.07
2023-05-06T11:04:56.312Z,217.13
2023-05-06T11:05:56.331Z,216.96
2023-05-06T11:06:56.287Z,220.17
2023-05-06T11:07:56.301Z,224.43
2023-05-06T11:08:56.350Z,226.61
2023-05-06T11:09:56.340Z,224.97
2023-05-06T11:10:56.359Z,224.76
2023-05-06T11:11:56.616Z,222.96
2023-05-06T11:12:56.416Z,218.85
2023-05-06T11:13:56.400Z,227.01
2023-05-06T11:14:56.421Z,233.07
2023-05-06T11:15:56.444Z,229.13
2023-05-06T11:16:56.516Z,230.06
2023-05-06T11:17:56.564Z,225.44
2023-05-06T11:18:56.505Z,218.68
2023-05-06T11:19:56.472Z,221.31
2023-05-06T11:20:56.496Z,226.12
2023-05-06T11:21:56.498Z,217.12
2023-05-06T11:22:56.520Z,219.35
2023-05-06T11:23:56.537Z,222.18
2023-05-06T11:24:56.603Z,223.28
2023-05-06T11:25:56.632Z,217.91
2023-05-06T11:26:56.646Z,215.02
2023-05-06T11:27:56.723Z,228.62
2023-05-06T11:28:56.671Z,222.87
2023-05-06T11:29:56.707Z,224.44
2023-05-06T11:30:56.744Z,219.67
2023-05-06T11:31:56.753Z,218.97
2023-05-06T11:32:56.756Z,212.07
2023-05-06T11:33:56.774Z,212.84
2023-05-06T11:34:56.784Z,221.70
2023-05-06T11:35:56.833Z,215.66
2023-05-06T11:36:56.898Z,214.00
2023-05-06T11:37:56.939Z,212.81
2023-05-06T11:38:56.931Z,224.45
2023-05-06T11:39:56.977Z,222.28
2023-05-06T11:40:57.030Z,222.85
2023-05-06T11:41:57.077Z,218.12
2023-05-06T11:42:57.110Z,219.80
2023-05-06T11:43:57.114Z,222.67
2023-05-06T11:44:57.141Z,226.35
2023-05-06T11:45:57.201Z,227.65
2023-05-06T11:46:57.213Z,221.09
2023-05-06T11:47:57.298Z,225.19
2023-05-06T11:48:57.324Z,228.29
2023-05-06T11:49:57.385Z,225.03
2023-05-06T11:50:57.397Z,223.91
2023-05-06T11:51:57.466Z,224.14
2023-05-06T11:52:57.489Z,219.18
2023-05-06T11:53:57.521Z,225.10
2023-05-06T11:54:57.570Z,229.67
2023-05-06T11:55:57.646Z,226.92
2023-05-06T11:56:57.669Z,221.36
2023-05-06T11:57:57.730Z,220.93
2023-05-06T11:58:57.774Z,224.76
2023-05-06T11:59:57.937Z,224.26
2023-05-06T12:00:57.888Z,223.08
2023-05-06T12:01:57.888Z,222.23
2023-05-06T12:02:58.084Z,227.08
2023-05-06T12:03:58.218Z,220.31
2023-05-06T12:04:58.147Z,217.50
2023-05-06T12:05:58.084Z,220.19
2023-05-06T12:06:58.080Z,223.82
2023-05-06T12:07:58.116Z,216.63
2023-05-06T12:08:58.195Z,217.76
2023-05-06T12:09:58.178Z,213.52
2023-05-06T12:10:58.288Z,212.71
2023-05-06T12:11:58.259Z,220.06
2023-05-06T12:12:58.366Z,216.33
2023-05-06T12:13:58.345Z,215.03
2023-05-06T12:14:58.357Z,222.14
2023-05-06T12:15:58.505Z,219.91
2023-05-06T12:16:58.418Z,221.21
2023-05-06T12:17:58.489Z,219.20
2023-05-06T12:18:58.490Z,214.06
2023-05-06T12:19:58.498Z,214.35
2023-05-06T12:20:58.526Z,216.53
2023-05-06T12:21:58.536Z,218.69
2023-05-06T12:22:58.590Z,220.80
2023-05-06T12:23:58.687Z,219.30
2023-05-06T12:24:58.609Z,219.90
2023-05-06T12:25:58.617Z,214.39
2023-05-06T12:26:58.641Z,213.89
2023-05-06T12:27:58.765Z,208.74
2023-05-06T12:28:58.733Z,214.43